createdAt,value
2023-01-11T00:02:26.434Z,3.50
2023-01-11T00:04:53.206Z,3.10
2023-01-11T00:07:19.982Z,3.50
2023-01-11T00:09:47.892Z,3.50
2023-01-11T00:12:15.129Z,3.70
2023-01-11T00:14:41.781Z,4.10
2023-01-11T00:17:08.512Z,2.70
2023-01-11T00:19:35.121Z,1.60
2023-01-11T00:22:01.812Z,1.80
2023-01-11T00:24:28.445Z,1.60
2023-01-11T00:26:55.005Z,1.50
2023-01-11T00:29:21.544Z,1.10
2023-01-11T00:31:48.078Z,1.00
2023-01-11T00:34:14.628Z,1.00
2023-01-11T00:36:41.213Z,0.90
2023-01-11T00:39:07.851Z,0.90
2023-01-11T00:41:53.039Z,0.90
2023-01-11T00:44:38.613Z,1.20
2023-01-11T00:47:24.161Z,0.90
2023-01-11T00:49:50.701Z,0.80
2023-01-11T00:52:17.230Z,0.60
2023-01-11T00:54:44.120Z,0.90
2023-01-11T00:57:10.676Z,0.90
2023-01-11T00:59:39.629Z,0.70
2023-01-11T01:02:06.815Z,1.10
2023-01-11T01:04:33.338Z,1.20
2023-01-11T01:06:59.925Z,0.90
2023-01-11T01:09:27.523Z,0.80
2023-01-11T01:11:54.133Z,0.70
2023-01-11T01:14:28.451Z,0.80
2023-01-11T01:17:01.842Z,1.40
2023-01-11T01:19:29.430Z,0.70
2023-01-11T01:21:56.466Z,0.60
2023-01-11T01:24:23.929Z,1.60
2023-01-11T01:26:50.853Z,1.50
2023-01-11T01:29:17.636Z,2.20
2023-01-11T01:31:44.215Z,1.70
2023-01-11T01:34:11.389Z,1.60
2023-01-11T01:36:37.951Z,1.60
2023-01-11T01:39:05.398Z,1.50
2023-01-11T01:41:32.235Z,0.70
2023-01-11T01:44:00.921Z,0.40
2023-01-11T01:46:28.842Z,0.80
2023-01-11T01:49:01.570Z,0.60
2023-01-11T01:51:31.010Z,1.30
2023-01-11T01:53:59.180Z,1.30
2023-01-11T01:56:32.342Z,1.40
2023-01-11T01:59:01.578Z,1.30
2023-01-11T02:01:46.928Z,1.50
2023-01-11T02:04:27.240Z,1.50
2023-01-11T02:06:56.672Z,1.50
2023-01-11T02:09:27.389Z,1.20
2023-01-11T02:11:55.998Z,1.60
2023-01-11T02:14:23.263Z,1.10
2023-01-11T02:16:49.884Z,1.20
2023-01-11T02:19:39.659Z,1.40
2023-01-11T02:22:29.633Z,1.00
2023-01-11T02:24:56.282Z,1.30
2023-01-11T02:27:36.437Z,1.00
2023-01-11T02:30:03.009Z,0.50
2023-01-11T02:32:29.558Z,1.20
2023-01-11T02:35:02.088Z,2.20
2023-01-11T02:37:38.757Z,1.80
2023-01-11T02:40:08.171Z,1.70
2023-01-11T02:42:58.020Z,2.10
2023-01-11T02:45:44.737Z,2.40
2023-01-11T02:48:11.263Z,2.00
2023-01-11T02:50:50.139Z,2.00
2023-01-11T02:53:16.701Z,1.60
2023-01-11T02:55:48.097Z,2.10
2023-01-11T02:58:16.164Z,2.70
2023-01-11T03:00:43.608Z,4.30
2023-01-11T03:03:13.991Z,4.40
2023-01-11T03:05:44.256Z,3.90
2023-01-11T03:08:13.870Z,2.40
2023-01-11T03:10:40.623Z,2.20
2023-01-11T03:13:13.050Z,3.50
2023-01-11T03:16:00.585Z,2.30
2023-01-11T03:18:28.262Z,2.60
2023-01-11T03:21:00.286Z,3.00
2023-01-11T03:23:52.131Z,2.50
2023-01-11T03:26:29.203Z,2.50
2023-01-11T03:29:05.225Z,3.10
2023-01-11T03:31:37.054Z,2.80
2023-01-11T03:34:11.486Z,2.80
2023-01-11T03:36:43.455Z,6.00
2023-01-11T03:39:17.555Z,3.40
2023-01-11T03:41:44.743Z,2.30
2023-01-11T03:44:12.960Z,2.40
2023-01-11T03:46:51.713Z,2.00
2023-01-11T03:49:21.215Z,2.40
2023-01-11T03:51:48.871Z,2.40
2023-01-11T03:54:16.790Z,2.10
2023-01-11T03:56:54.023Z,1.50
2023-01-11T03:59:20.760Z,2.10
2023-01-11T04:01:47.272Z,2.90
2023-01-11T04:04:13.848Z,3.30
2023-01-11T04:06:40.525Z,1.50
2023-01-11T04:09:07.110Z,6.30
2023-01-11T04:11:33.649Z,2.20
2023-01-11T04:14:01.635Z,1.50
2023-01-11T04:16:28.289Z,1.60
2023-01-11T04:18:55.594Z,0.80
2023-01-11T04:21:22.448Z,1.60
2023-01-11T04:23:49.466Z,2.00
2023-01-11T04:26:17.631Z,2.60
2023-01-11T04:28:44.582Z,6.30
2023-01-11T04:31:11.187Z,9.20
2023-01-11T04:33:37.837Z,27.70
2023-01-11T04:36:08.417Z,19.10
2023-01-11T04:38:34.998Z,20.40
2023-01-11T04:41:37.472Z,8.20
2023-01-11T04:44:04.104Z,32.40
2023-01-11T04:46:30.649Z,16.20
2023-01-11T04:48:57.263Z,9.30
2023-01-11T04:51:23.823Z,4.30
2023-01-11T04:53:50.678Z,3.70
2023-01-11T04:56:17.712Z,3.00
2023-01-11T04:58:44.256Z,2.60
2023-01-11T05:01:11.798Z,2.60
2023-01-11T05:03:38.514Z,2.30
2023-01-11T05:06:06.070Z,2.00
2023-01-11T05:08:32.665Z,2.30
2023-01-11T05:11:01.084Z,2.30
2023-01-11T05:13:41.846Z,3.80
2023-01-11T05:16:08.936Z,5.30
2023-01-11T05:18:35.772Z,4.90
2023-01-11T05:21:02.791Z,5.80
2023-01-11T05:23:29.630Z,5.70
2023-01-11T05:25:56.285Z,6.90
2023-01-11T05:28:23.107Z,6.40
2023-01-11T05:30:53.559Z,4.60
2023-01-11T05:33:20.288Z,5.80
2023-01-11T05:35:46.915Z,4.30
2023-01-11T05:38:13.544Z,3.90
2023-01-11T05:40:40.201Z,4.50
2023-01-11T05:43:06.821Z,5.20
2023-01-11T05:45:33.888Z,4.40
2023-01-11T05:48:00.516Z,4.70
2023-01-11T05:50:27.378Z,3.70
2023-01-11T05:52:53.986Z,3.80
2023-01-11T05:55:20.835Z,5.00
2023-01-11T05:57:47.880Z,5.10
2023-01-11T06:00:15.145Z,5.90
2023-01-11T06:02:41.810Z,6.60
2023-01-11T06:05:08.806Z,6.00
2023-01-11T06:07:35.446Z,5.50
2023-01-11T06:10:02.301Z,4.00
2023-01-11T06:12:29.149Z,5.10
2023-01-11T06:14:55.985Z,4.50
2023-01-11T06:17:22.558Z,5.20
2023-01-11T06:19:49.256Z,4.10
2023-01-11T06:22:16.091Z,10.60
2023-01-11T06:24:42.651Z,4.30
2023-01-11T06:27:09.370Z,4.20
2023-01-11T06:29:36.043Z,4.60
2023-01-11T06:32:02.603Z,7.40
2023-01-11T06:34:29.275Z,4.90
2023-01-11T06:36:56.120Z,4.80
2023-01-11T06:39:22.988Z,5.10
2023-01-11T06:41:49.557Z,4.60
2023-01-11T06:44:16.127Z,4.30
2023-01-11T06:46:42.888Z,4.50
2023-01-11T06:49:10.960Z,4.40
2023-01-11T06:51:37.555Z,5.30
2023-01-11T06:54:04.228Z,4.90
2023-01-11T06:56:30.867Z,3.50
2023-01-11T06:58:57.710Z,2.80
2023-01-11T07:01:26.392Z,3.30
2023-01-11T07:03:53.235Z,3.70
2023-01-11T07:06:19.873Z,8.80
2023-01-11T07:08:46.508Z,7.20
2023-01-11T07:11:13.126Z,8.60
2023-01-11T07:13:39.799Z,9.20
2023-01-11T07:16:06.886Z,10.80
2023-01-11T07:18:33.886Z,7.70
2023-01-11T07:21:00.722Z,8.10
2023-01-11T07:23:27.564Z,5.40
2023-01-11T07:25:54.215Z,8.60
2023-01-11T07:28:20.848Z,7.60
2023-01-11T07:30:58.183Z,8.40
2023-01-11T07:33:25.998Z,7.70
2023-01-11T07:35:53.052Z,7.50
2023-01-11T07:38:19.877Z,8.50
2023-01-11T07:40:47.830Z,10.80
2023-01-11T07:43:15.202Z,11.10
2023-01-11T07:45:52.793Z,11.30
2023-01-11T07:48:26.612Z,14.20
2023-01-11T07:50:54.218Z,13.90
2023-01-11T07:53:21.377Z,9.70
2023-01-11T07:55:48.070Z,29.20
2023-01-11T07:58:15.780Z,18.20
2023-01-11T08:00:43.100Z,8.80
2023-01-11T08:03:11.061Z,7.70
2023-01-11T08:05:37.941Z,6.90
2023-01-11T08:08:05.349Z,11.20
2023-01-11T08:10:31.993Z,9.60
2023-01-11T08:13:17.668Z,12.30
2023-01-11T08:15:44.555Z,10.40
2023-01-11T08:18:11.976Z,7.80
2023-01-11T08:20:39.548Z,5.50
2023-01-11T08:23:07.304Z,11.00
2023-01-11T08:25:34.566Z,9.20
2023-01-11T08:28:02.152Z,8.00
2023-01-11T08:30:28.937Z,8.10
2023-01-11T08:32:57.324Z,7.90
2023-01-11T08:35:27.025Z,7.30
2023-01-11T08:37:53.662Z,7.60
2023-01-11T08:40:23.622Z,6.20
2023-01-11T08:42:54.522Z,5.30
2023-01-11T08:45:21.351Z,7.90
2023-01-11T08:47:48.937Z,8.90
2023-01-11T08:50:17.705Z,8.20
2023-01-11T08:52:45.160Z,7.40
2023-01-11T08:55:12.056Z,6.20
2023-01-11T08:57:39.284Z,13.10
2023-01-11T09:00:07.732Z,16.20
2023-01-11T09:02:34.422Z,11.00
2023-01-11T09:05:01.132Z,21.40
2023-01-11T09:07:28.059Z,8.90
2023-01-11T09:09:54.901Z,9.90
2023-01-11T09:12:21.745Z,18.30
2023-01-11T09:14:48.370Z,6.90
2023-01-11T09:17:15.231Z,14.60
2023-01-11T09:19:42.073Z,12.90
2023-01-11T09:22:09.093Z,9.60
2023-01-11T09:24:35.674Z,8.90
2023-01-11T09:27:02.390Z,5.70
2023-01-11T09:29:29.455Z,6.20
2023-01-11T09:31:56.285Z,8.60
2023-01-11T09:34:25.094Z,6.50
2023-01-11T09:36:51.884Z,11.30
2023-01-11T09:39:19.007Z,9.50
2023-01-11T09:41:58.365Z,19.70
2023-01-11T09:44:27.378Z,13.30
2023-01-11T09:46:56.920Z,12.60
2023-01-11T09:49:30.404Z,7.60
2023-01-11T09:52:05.629Z,5.80
2023-01-11T09:54:32.881Z,5.50
2023-01-11T09:57:10.782Z,14.10
2023-01-11T09:59:46.841Z,7.70
2023-01-11T10:02:27.540Z,5.30
2023-01-11T10:05:00.818Z,3.00
2023-01-11T10:07:53.854Z,2.10
2023-01-11T10:18:38.882Z,2.00
2023-01-11T10:19:37.407Z,0.90
2023-01-11T10:22:33.047Z,1.10
2023-01-11T10:25:16.896Z,0.90
2023-01-11T10:27:55.840Z,0.60
2023-01-11T10:30:48.690Z,0.50
2023-01-11T10:33:38.874Z,0.40
2023-01-11T10:36:39.644Z,0.30
2023-01-11T10:39:25.204Z,0.50
2023-01-11T10:42:03.310Z,0.60
2023-01-11T10:44:36.899Z,0.20
2023-01-11T10:47:04.563Z,0.30
2023-01-11T10:49:35.658Z,0.20
2023-01-11T10:52:18.465Z,0.10
2023-01-11T10:54:50.247Z,0.10
2023-01-11T10:57:30.433Z,0.30
2023-01-11T11:00:00.145Z,0.20
2023-01-11T11:02:26.843Z,0.30
2023-01-11T11:05:00.174Z,0.20
2023-01-11T11:07:26.834Z,0.20
2023-01-11T11:09:53.664Z,0.30
2023-01-11T11:12:24.386Z,0.10
2023-01-11T11:15:00.256Z,0.30
2023-01-11T11:17:29.756Z,0.30
2023-01-11T11:19:57.626Z,0.50
2023-01-11T11:22:24.463Z,0.40
2023-01-11T11:25:05.241Z,0.30
2023-01-11T11:27:43.539Z,0.20
2023-01-11T11:30:11.231Z,0.70
2023-01-11T11:32:39.065Z,1.40
2023-01-11T11:35:08.169Z,0.40
2023-01-11T11:37:36.039Z,0.70
2023-01-11T11:40:03.489Z,0.70
2023-01-11T11:42:30.455Z,0.20
2023-01-11T11:45:09.267Z,0.90
2023-01-11T11:47:36.519Z,0.20
2023-01-11T11:50:42.488Z,0.20
2023-01-11T11:53:25.491Z,0.20
2023-01-11T11:55:52.966Z,0.20
2023-01-11T11:58:21.428Z,0.10
2023-01-11T12:00:49.124Z,0.20
2023-01-11T12:03:21.647Z,0.20
2023-01-11T12:05:54.243Z,0.50
2023-01-11T12:08:22.114Z,0.70
2023-01-11T12:10:51.619Z,1.80
2023-01-11T12:13:35.259Z,4.10
2023-01-11T12:16:04.346Z,2.40
2023-01-11T12:18:38.149Z,4.90
2023-01-11T12:21:19.170Z,1.30
2023-01-11T12:23:46.600Z,0.70
2023-01-11T12:26:19.150Z,0.50
2023-01-11T12:28:55.220Z,0.20
2023-01-11T12:31:29.021Z,0.20
2023-01-11T12:33:55.591Z,0.30
2023-01-11T12:36:48.717Z,0.10
2023-01-11T12:39:21.917Z,0.30
2023-01-11T12:41:57.561Z,0.20
2023-01-11T12:44:37.099Z,0.40
2023-01-11T12:47:19.095Z,0.20
2023-01-11T12:50:03.959Z,0.10
2023-01-11T12:52:49.235Z,0.20
2023-01-11T12:55:21.803Z,0.50
2023-01-11T12:58:00.740Z,0.20
2023-01-11T13:00:46.207Z,0.10
2023-01-11T13:03:34.358Z,1.20
2023-01-11T13:06:06.166Z,0.40
2023-01-11T13:08:49.140Z,0.30
2023-01-11T13:11:35.396Z,0.40
2023-01-11T13:14:08.057Z,0.40
2023-01-11T13:16:38.839Z,0.60
2023-01-11T13:19:20.750Z,1.00
2023-01-11T13:21:53.541Z,0.20
2023-01-11T13:24:26.655Z,0.10
2023-01-11T13:26:58.101Z,1.20
2023-01-11T13:29:29.216Z,0.40
2023-01-11T13:31:58.359Z,0.30
2023-01-11T13:34:36.445Z,0.20
2023-01-11T13:37:07.144Z,0.20
2023-01-11T13:39:54.886Z,0.20
2023-01-11T13:42:27.533Z,0.50
2023-01-11T13:45:00.839Z,0.20
2023-01-11T13:47:31.780Z,0.10
2023-01-11T13:50:01.709Z,0.40
2023-01-11T13:52:37.975Z,0.60
2023-01-11T13:55:26.588Z,0.80
2023-01-11T13:58:00.731Z,0.70
2023-01-11T14:00:32.183Z,0.50
2023-01-11T14:03:18.213Z,0.30
2023-01-11T14:05:51.390Z,0.10
2023-01-11T14:08:38.256Z,0.30
2023-01-11T14:11:11.059Z,0.30
2023-01-11T14:14:18.344Z,0.20
2023-01-11T14:16:45.090Z,0.50
2023-01-11T14:19:17.666Z,0.10
2023-01-11T14:21:44.296Z,0.40
2023-01-11T14:24:11.529Z,0.30
2023-01-11T14:26:57.306Z,0.30
2023-01-11T14:29:33.707Z,0.50
2023-01-11T14:32:07.307Z,0.50
2023-01-11T14:34:34.143Z,0.20
2023-01-11T14:37:10.447Z,3.40
2023-01-11T14:39:41.043Z,11.80
2023-01-11T14:42:32.041Z,7.80
2023-01-11T14:45:04.334Z,4.10
2023-01-11T14:47:47.753Z,1.90
2023-01-11T14:50:17.463Z,1.30
2023-01-11T14:52:44.720Z,1.50
2023-01-11T14:55:23.028Z,0.90
2023-01-11T14:57:55.811Z,1.60
2023-01-11T15:00:22.358Z,21.40
2023-01-11T15:03:12.434Z,23.80
2023-01-11T15:05:45.410Z,25.80
2023-01-11T15:08:15.135Z,23.40
2023-01-11T15:10:49.543Z,21.20
2023-01-11T15:13:24.906Z,13.50
2023-01-11T15:16:21.624Z,5.30
2023-01-11T15:18:48.579Z,2.60
2023-01-11T15:21:22.797Z,2.50
2023-01-11T15:23:51.274Z,2.90
2023-01-11T15:26:19.130Z,4.30
2023-01-11T15:28:50.557Z,5.80
2023-01-11T15:31:30.849Z,6.20
2023-01-11T15:34:16.118Z,10.40
2023-01-11T15:36:58.527Z,12.30
2023-01-11T15:39:37.564Z,12.90
2023-01-11T15:42:13.590Z,13.10
2023-01-11T15:44:49.237Z,14.10
2023-01-11T15:47:15.792Z,12.40
2023-01-11T15:49:42.643Z,9.00
2023-01-11T15:52:18.451Z,7.00
2023-01-11T15:55:03.965Z,8.30
2023-01-11T15:57:40.238Z,6.60
2023-01-11T16:00:25.911Z,5.00
2023-01-11T16:02:55.629Z,4.70
2023-01-11T16:05:25.379Z,3.80
2023-01-11T16:07:52.124Z,4.00
2023-01-11T16:10:31.051Z,5.00
2023-01-11T16:12:57.746Z,3.40
2023-01-11T16:15:30.542Z,3.00
2023-01-11T16:18:03.104Z,2.40
2023-01-11T16:20:29.948Z,1.80
2023-01-11T16:23:01.494Z,1.40
2023-01-11T16:25:39.200Z,2.20
2023-01-11T16:28:06.252Z,2.50
2023-01-11T16:30:33.702Z,1.20
2023-01-11T16:33:20.888Z,1.10
2023-01-11T16:35:47.516Z,13.60
2023-01-11T16:38:19.821Z,26.40
2023-01-11T16:40:49.334Z,23.50
2023-01-11T16:43:18.219Z,18.00
2023-01-11T16:45:47.135Z,10.50
2023-01-11T16:48:13.955Z,7.60
2023-01-11T16:50:42.438Z,10.50
2023-01-11T16:53:13.595Z,11.90
2023-01-11T16:55:41.355Z,16.10
2023-01-11T16:58:27.134Z,12.70
2023-01-11T17:01:02.428Z,9.10
2023-01-11T17:03:31.538Z,6.90
2023-01-11T17:06:00.451Z,4.00
2023-01-11T17:08:31.841Z,3.70
2023-01-11T17:11:10.629Z,3.60
2023-01-11T17:13:53.855Z,2.90
2023-01-11T17:16:30.518Z,2.70
2023-01-11T17:19:00.531Z,2.70
2023-01-11T17:21:28.142Z,3.30
2023-01-11T17:23:58.640Z,3.20
2023-01-11T17:26:30.818Z,4.80
2023-01-11T17:28:58.913Z,5.70
2023-01-11T17:31:32.144Z,7.40
2023-01-11T17:34:03.213Z,8.80
2023-01-11T17:36:30.464Z,9.10
2023-01-11T17:38:58.123Z,8.80
2023-01-11T17:41:47.151Z,7.50
2023-01-11T17:44:37.275Z,9.00
2023-01-11T17:47:06.781Z,6.70
2023-01-11T17:49:34.854Z,7.00
2023-01-11T17:52:15.868Z,6.50
2023-01-11T17:54:42.666Z,6.90
2023-01-11T17:57:09.733Z,5.80
2023-01-11T17:59:36.557Z,6.70
2023-01-11T18:02:12.076Z,8.50
2023-01-11T18:04:39.041Z,7.90
2023-01-11T18:07:13.480Z,8.40
2023-01-11T18:09:48.730Z,8.10
2023-01-11T18:12:23.125Z,8.40
2023-01-11T18:14:55.703Z,6.80
2023-01-11T18:17:30.541Z,5.60
2023-01-11T18:19:57.388Z,5.00
2023-01-11T18:22:31.879Z,5.70
2023-01-11T18:25:00.092Z,6.90
2023-01-11T18:27:29.378Z,7.80
2023-01-11T18:29:57.424Z,9.70
2023-01-11T18:32:25.239Z,11.60
2023-01-11T18:34:53.489Z,11.90
2023-01-11T18:37:20.977Z,14.00
2023-01-11T18:39:48.257Z,17.90
2023-01-11T18:42:17.397Z,16.00
2023-01-11T18:44:47.020Z,18.00
2023-01-11T18:47:22.143Z,15.10
2023-01-11T18:49:50.411Z,17.80
2023-01-11T18:52:19.708Z,17.40
2023-01-11T18:54:48.389Z,16.00
2023-01-11T18:57:15.819Z,18.90
2023-01-11T18:59:43.302Z,15.80
2023-01-11T19:04:50.914Z,15.10
2023-01-11T19:07:17.967Z,15.20
2023-01-11T19:09:45.426Z,16.50
2023-01-11T19:12:14.111Z,15.40
2023-01-11T19:14:41.157Z,15.10
2023-01-11T19:17:09.632Z,14.40
2023-01-11T19:19:37.107Z,14.30
2023-01-11T19:22:05.333Z,15.90
2023-01-11T19:24:34.057Z,16.50
2023-01-11T19:27:01.341Z,14.30
2023-01-11T19:29:32.654Z,14.40
2023-01-11T19:32:00.123Z,13.50
2023-01-11T19:34:27.155Z,13.40
2023-01-11T19:36:54.203Z,15.70
2023-01-11T19:39:21.045Z,13.80
2023-01-11T19:41:58.132Z,15.10
2023-01-11T19:44:27.838Z,15.30
2023-01-11T19:47:10.371Z,13.10
2023-01-11T19:49:39.603Z,16.10
2023-01-11T19:52:13.613Z,16.40
2023-01-11T19:54:44.121Z,17.00
2023-01-11T19:57:16.563Z,15.50
2023-01-11T19:59:45.762Z,11.50
2023-01-11T20:02:13.851Z,12.60
2023-01-11T20:04:41.413Z,13.30
2023-01-11T20:07:09.221Z,13.20
2023-01-11T20:09:39.083Z,11.30
2023-01-11T20:12:06.947Z,12.50
2023-01-11T20:14:38.968Z,10.90
2023-01-11T20:17:05.984Z,12.00
2023-01-11T20:19:34.969Z,10.50
2023-01-11T20:22:02.715Z,10.20
2023-01-11T20:24:30.448Z,8.60
2023-01-11T20:26:59.447Z,8.00
2023-01-11T20:29:26.746Z,7.90
2023-01-11T20:31:55.793Z,7.30
2023-01-11T20:34:25.309Z,7.40
2023-01-11T20:36:52.566Z,7.80
2023-01-11T20:39:19.409Z,8.40
2023-01-11T20:41:50.102Z,6.80
2023-01-11T20:44:22.279Z,8.00
2023-01-11T20:46:49.902Z,8.10
2023-01-11T20:49:17.636Z,8.70
2023-01-11T20:51:46.311Z,8.70
2023-01-11T20:54:17.475Z,10.50
2023-01-11T20:56:47.169Z,8.70
2023-01-11T20:59:17.085Z,7.90
2023-01-11T21:01:43.936Z,8.70
2023-01-11T21:04:11.794Z,8.30
2023-01-11T21:06:40.074Z,8.20
2023-01-11T21:09:07.315Z,10.20
2023-01-11T21:11:34.382Z,7.70
2023-01-11T21:14:01.823Z,5.70
2023-01-11T21:16:29.274Z,5.70
2023-01-11T21:18:56.137Z,6.80
2023-01-11T21:21:23.172Z,6.40
2023-01-11T21:23:53.936Z,7.30
2023-01-11T21:26:20.555Z,7.60
2023-01-11T21:28:51.226Z,6.70
2023-01-11T21:31:18.374Z,8.10
2023-01-11T21:33:45.065Z,18.20
2023-01-11T21:36:13.080Z,18.20
2023-01-11T21:38:39.694Z,14.10
2023-01-11T21:41:07.568Z,19.10
2023-01-11T21:43:34.791Z,19.20
2023-01-11T21:46:01.845Z,21.40
2023-01-11T21:48:28.487Z,21.00
2023-01-11T21:50:55.318Z,21.00
2023-01-11T21:53:22.579Z,21.60
2023-01-11T21:55:49.994Z,27.20
2023-01-11T21:58:17.473Z,22.80
2023-01-11T22:00:44.113Z,17.50
2023-01-11T22:03:10.804Z,21.00
2023-01-11T22:05:37.360Z,22.80
2023-01-11T22:08:04.021Z,18.10
2023-01-11T22:10:31.061Z,12.90
2023-01-11T22:12:57.657Z,14.50
2023-01-11T22:15:24.245Z,17.00
2023-01-11T22:17:50.909Z,18.50
2023-01-11T22:20:17.730Z,15.50
2023-01-11T22:22:44.473Z,16.90
2023-01-11T22:25:11.093Z,11.80
2023-01-11T22:27:37.665Z,10.50
2023-01-11T22:30:04.777Z,8.70
2023-01-11T22:32:31.502Z,8.10
2023-01-11T22:34:58.151Z,8.40
2023-01-11T22:37:24.808Z,7.30
2023-01-11T22:39:51.462Z,7.30
2023-01-11T22:42:18.033Z,6.80
2023-01-11T22:44:44.599Z,6.10
2023-01-11T22:47:11.201Z,7.00
2023-01-11T22:49:37.815Z,6.40
2023-01-11T22:52:04.538Z,6.30
2023-01-11T22:54:31.172Z,7.00
2023-01-11T22:56:58.785Z,6.30
2023-01-11T22:59:26.027Z,7.20
2023-01-11T23:01:52.599Z,6.60
2023-01-11T23:04:19.142Z,7.50
2023-01-11T23:06:46.038Z,7.10
2023-01-11T23:09:16.019Z,7.10
2023-01-11T23:12:02.172Z,7.60
2023-01-11T23:14:33.136Z,8.70
2023-01-11T23:17:04.625Z,8.80
2023-01-11T23:19:32.313Z,9.40
2023-01-11T23:21:59.217Z,10.00
2023-01-11T23:24:25.841Z,9.10
2023-01-11T23:26:52.533Z,10.30
2023-01-11T23:29:19.243Z,12.30
2023-01-11T23:31:46.058Z,11.50
2023-01-11T23:34:13.214Z,10.60
2023-01-11T23:36:41.089Z,8.60
2023-01-11T23:39:08.740Z,7.70
2023-01-11T23:41:54.228Z,8.00
2023-01-11T23:44:22.378Z,7.80
2023-01-11T23:47:08.600Z,7.70
2023-01-11T23:49:35.200Z,8.30
2023-01-11T23:52:01.825Z,8.30
2023-01-11T23:54:29.557Z,7.60
2023-01-11T23:56:56.773Z,7.20
2023-01-11T23:59:23.628Z,6.90
